Latest Weather Observations for Sydney - Observatory Hill

IDN60901

Issued at 11:41 pm EST Wednesday 29 July 2015 (issued every 10 minutes, with the page automatically refreshed every 10 minutes)

About weather observations | Map of Sydney area stations | Latest observations for Sydney area | Other Formats
Station Details ID: 066062 Name: SYDNEY (OBSERVATORY HILL) Lat: -33.86 Lon: 151.21 Height: 39.0 m
Data from the previous 72 hours. | See also: Recent months at Sydney - Observatory Hill

* Apparent temperature (App Temp) for Sydney - Observatory Hill is calculated using temperature observations collected at Sydney - Observatory Hill and wind observations collected at Fort Denison, as wind observations are not currently provided for Sydney - Observatory Hill.

Date/Time
EST
Tmp

°C
App
Tmp
°C
Dew
Point
°C
Rel
Hum
%
Delta-T

°C
Wind Press
QNH
hPa
Press
MSL
hPa
Rain
since
9 am
mm
Dir
 
Spd
km/h
Gust
km/h
Spd
kts
Gust
kts
29/11:30pm 10.8 7.9 8.2 84 1.3 WNW 13 - 7 - 1029.6 1029.6 0.0
29/11:00pm 11.2 7.8 7.7 79 1.7 W 15 - 8 - 1030.0 1030.0 0.0
29/10:00pm 12.6 11.4 7.9 73 2.3 NNW 4 - 2 - 1030.4 1030.4 0.0
29/09:30pm 13.4 11.8 8.0 70 2.7 NNW 6 - 3 - 1030.3 1030.3 0.0
29/09:00pm 13.6 11.8 8.0 69 2.8 N 7 - 4 - 1030.2 1030.2 0.0
29/08:30pm 13.7 12.1 7.9 68 2.9 NNW 6 - 3 - 1030.3 1030.3 0.0
29/08:00pm 13.9 13.0 7.9 67 3.0 NE 2 - 1 - 1030.3 1030.3 0.0
29/07:30pm 14.2 13.3 7.9 66 3.1 N 2 - 1 - 1030.6 1030.6 0.0
29/07:00pm 14.5 13.2 7.8 64 3.3 N 4 - 2 - 1030.6 1030.6 0.0
29/06:30pm 14.7 13.5 8.0 64 3.3 NE 4 - 2 - 1030.4 1030.4 0.0
29/05:30pm 14.8 12.5 7.6 62 3.6 E 9 - 5 - 1029.8 1029.8 0.0
29/05:00pm 14.9 12.1 7.0 59 3.8 ESE 11 - 6 - 1029.9 1029.9 0.0
29/04:30pm 15.0 12.5 6.6 57 4.1 E 9 - 5 - 1029.7 1029.7 0.0
29/04:00pm 15.3 12.4 6.6 56 4.2 ESE 11 - 6 - 1029.7 1029.7 0.0
29/03:30pm 15.6 12.8 6.9 56 4.3 ESE 11 - 6 - 1030.0 1030.0 0.0
29/03:00pm 16.4 13.4 6.0 50 5.0 ESE 11 - 6 - 1030.2 1030.2 0.0
29/02:30pm 17.7 14.6 7.4 51 5.2 ESE 13 - 7 - 1030.5 1030.5 0.0
29/02:00pm 17.0 13.9 7.1 52 4.9 ESE 13 - 7 - 1030.9 1030.9 0.0
29/01:30pm 16.7 13.0 6.2 50 5.1 ESE 15 - 8 - 1031.1 1031.1 0.0
29/01:00pm 17.7 16.0 5.9 46 5.7 ENE 4 - 2 - 1031.7 1031.7 0.0
29/12:30pm 17.3 15.5 7.1 51 5.1 WNW 6 - 3 - 1032.2 1032.2 0.0
29/12:00pm 15.1 12.6 6.7 57 4.1 WNW 9 - 5 - 1032.9 1032.9 0.0
29/11:30am 13.8 10.5 6.2 60 3.6 WNW 13 - 7 - 1033.5 1033.5 0.0
29/11:00am 12.6 - 5.8 63 3.2 - - - - - 1034.1 1034.1 0.0
29/10:00am 11.2 - 5.1 66 2.8 - - - - - 1034.7 1034.7 0.0
29/09:00am 9.3 - 4.1 70 2.3 - - - - - 1035.0 1035.0 0.0
29/08:30am 8.6 - 3.8 72 2.1 - - - - - 1035.0 1035.0 0.0
29/08:00am 8.6 3.6 4.4 75 1.8 W 20 - 11 - 1034.8 1034.8 0.0
29/07:30am 8.3 3.8 4.1 75 1.8 W 17 - 9 - 1034.6 1034.6 0.0
29/07:00am 8.3 3.4 4.3 76 1.7 W 19 - 10 - 1034.3 1034.3 0.0
29/06:30am 8.3 3.3 4.5 77 1.7 W 20 - 11 - 1034.0 1034.0 0.0
29/05:30am 8.2 3.7 4.0 75 1.8 W 17 - 9 - 1033.4 1033.4 0.0
29/05:00am 8.2 3.7 4.4 77 1.6 WNW 17 - 9 - 1033.3 1033.3 0.0
29/04:30am 8.5 3.6 3.9 73 2.0 WNW 19 - 10 - 1033.1 1033.1 0.0
29/04:00am 8.5 4.4 4.3 75 1.8 WNW 15 - 8 - 1033.1 1033.1 0.0
29/03:30am 8.5 3.5 4.5 76 1.8 WNW 20 - 11 - 1033.0 1033.0 0.0
29/03:00am 8.3 4.0 5.2 81 1.4 W 17 - 9 - 1033.1 1033.1 0.0
29/02:30am 8.2 3.5 5.0 80 1.4 W 19 - 10 - 1033.2 1033.2 0.0
29/02:00am 8.2 3.6 5.7 84 1.1 W 19 - 10 - 1033.3 1033.3 0.0
29/01:30am 8.2 4.0 5.8 85 1.1 W 17 - 9 - 1033.1 1033.1 0.0
29/01:00am 8.3 3.5 5.6 83 1.2 WNW 20 - 11 - 1033.2 1033.2 0.0
29/12:30am 8.5 3.9 5.4 81 1.4 WNW 19 - 10 - 1033.2 1033.2 0.0
29/12:00am 8.9 4.2 5.3 78 1.6 WNW 19 - 10 - 1033.2 1033.2 0.0
 
Date/Time
EST
Tmp

°C
App
Tmp
°C
Dew
Point
°C
Rel
Hum
%
Delta-T

°C
Wind Press
QNH
hPa
Press
MSL
hPa
Rain
since
9 am
mm
Dir
 
Spd
km/h
Gust
km/h
Spd
kts
Gust
kts
28/11:30pm 9.3 4.5 4.5 72 2.1 WNW 19 - 10 - 1033.3 1033.3 0.0
28/11:00pm 9.9 4.9 4.7 70 2.3 W 20 - 11 - 1033.4 1033.4 0.0
28/10:30pm 10.5 5.6 4.9 68 2.5 WNW 20 - 11 - 1033.3 1033.3 0.0
28/10:00pm 11.8 10.6 6.5 70 2.5 ENE 2 - 1 - 1032.8 1032.8 0.0
28/09:30pm 12.2 11.0 6.5 68 2.7 N 2 - 1 - 1032.9 1032.9 0.0
28/09:00pm 12.2 10.5 5.8 65 3.0 NW 4 - 2 - 1032.8 1032.8 0.0
28/08:30pm 12.5 10.8 5.7 63 3.2 ENE 4 - 2 - 1032.8 1032.8 0.0
28/08:00pm 12.8 11.0 5.2 60 3.5 S 4 - 2 - 1032.8 1032.8 0.0
28/07:30pm 13.4 11.0 5.3 58 3.8 SSW 7 - 4 - 1032.9 1032.9 0.0
28/07:00pm 13.3 11.0 5.0 57 3.8 SSW 6 - 3 - 1032.5 1032.5 0.0
28/06:30pm 13.7 11.2 4.8 55 4.1 S 7 - 4 - 1032.2 1032.2 0.0
28/06:00pm 13.8 11.3 4.7 54 4.2 S 7 - 4 - 1031.8 1031.8 0.0
28/05:30pm 14.0 11.0 4.3 52 4.5 S 9 - 5 - 1031.4 1031.4 0.0
28/05:00pm 14.1 10.3 4.1 51 4.5 S 13 - 7 - 1031.2 1031.2 0.0
28/04:30pm 14.4 9.8 3.5 48 4.9 S 17 - 9 - 1031.1 1031.1 0.0
28/04:00pm 14.9 9.8 2.8 44 5.4 SSE 19 - 10 - 1031.1 1031.1 0.0
28/03:30pm 16.4 11.1 2.8 40 6.2 S 20 - 11 - 1030.7 1030.7 0.0
28/03:00pm 16.6 11.5 3.0 40 6.2 S 19 - 10 - 1030.8 1030.8 0.0
28/02:30pm 16.2 10.5 2.9 41 6.0 SSE 22 - 12 - 1030.7 1030.7 0.0
28/02:00pm 15.4 9.5 1.5 39 6.0 S 22 - 12 - 1030.7 1030.7 0.0
28/01:30pm 16.2 11.2 1.1 36 6.6 S 17 - 9 - 1030.8 1030.8 0.0
28/01:00pm 17.0 13.1 1.4 35 6.9 W 11 - 6 - 1030.9 1030.9 0.0
28/12:30pm 16.0 11.5 2.1 39 6.2 W 15 - 8 - 1031.3 1031.3 0.0
28/12:00pm 14.4 10.3 2.0 43 5.4 WNW 13 - 7 - 1031.6 1031.6 0.0
28/11:30am 13.7 8.4 1.7 44 5.2 W 19 - 10 - 1032.3 1032.3 0.0
28/11:00am 12.7 6.8 1.7 47 4.7 W 22 - 12 - 1032.8 1032.8 0.0
28/10:30am 12.1 6.2 2.0 50 4.3 W 22 - 12 - 1033.0 1033.0 0.0
28/10:00am 11.5 4.8 1.7 51 4.1 W 26 - 14 - 1033.1 1033.1 0.0
28/09:30am 10.5 4.2 1.6 54 3.7 WNW 24 - 13 - 1033.1 1033.1 0.0
28/09:00am 9.6 3.3 1.3 56 3.4 WNW 24 - 13 - 1032.9 1032.9 0.0
28/08:30am 9.7 3.4 1.8 58 3.3 W 24 - 13 - 1032.7 1032.7 0.0
28/08:00am 8.2 2.3 1.4 62 2.7 W 22 - 12 - 1032.4 1032.4 0.0
28/07:30am 7.9 2.4 2.0 66 2.4 W 20 - 11 - 1032.2 1032.2 0.0
28/07:00am 6.6 0.6 1.1 68 2.2 W 22 - 12 - 1031.9 1031.9 0.0
28/06:30am 6.7 0.7 1.0 67 2.3 W 22 - 12 - 1031.4 1031.4 0.0
28/06:00am 6.9 0.9 1.2 67 2.3 W 22 - 12 - 1031.0 1031.0 0.0
28/05:30am 7.1 1.5 1.0 65 2.4 W 20 - 11 - 1030.6 1030.6 0.0
28/05:00am 7.2 1.5 0.6 63 2.6 W 20 - 11 - 1030.3 1030.3 0.0
28/04:30am 7.7 1.6 0.7 61 2.8 W 22 - 12 - 1030.1 1030.1 0.0
28/04:00am 7.9 1.8 0.6 60 2.9 W 22 - 12 - 1029.8 1029.8 0.0
28/03:30am 8.1 1.6 0.3 58 3.1 WSW 24 - 13 - 1029.6 1029.6 0.0
28/03:00am 8.3 1.8 0.3 57 3.2 W 24 - 13 - 1029.6 1029.6 0.0
28/02:30am 8.3 2.2 0.5 58 3.1 W 22 - 12 - 1029.6 1029.6 0.0
28/02:00am 8.4 1.6 0.9 59 3.0 W 26 - 14 - 1029.7 1029.7 0.0
28/01:30am 8.2 2.2 0.9 60 2.9 W 22 - 12 - 1029.7 1029.7 0.0
28/01:00am 8.3 2.3 0.8 59 3.0 W 22 - 12 - 1029.5 1029.5 0.0
28/12:30am 8.4 1.6 0.9 59 3.0 WNW 26 - 14 - 1029.4 1029.4 0.0
28/12:00am 8.5 2.9 1.0 59 3.0 WNW 20 - 11 - 1029.4 1029.4 0.0
 
Date/Time
EST
Tmp

°C
App
Tmp
°C
Dew
Point
°C
Rel
Hum
%
Delta-T

°C
Wind Press
QNH
hPa
Press
MSL
hPa
Rain
since
9 am
mm
Dir
 
Spd
km/h
Gust
km/h
Spd
kts
Gust
kts
27/11:30pm 8.5 2.8 0.5 57 3.2 WNW 20 - 11 - 1029.3 1029.3 0.0
27/11:00pm 9.0 2.5 0.2 54 3.5 W 24 - 13 - 1028.9 1028.9 0.0
27/10:30pm 9.2 3.1 0.4 54 3.5 W 22 - 12 - 1029.0 1029.0 0.0
27/10:00pm 9.4 2.9 0.3 53 3.6 W 24 - 13 - 1028.8 1028.8 0.0
27/09:30pm 9.6 3.5 0.5 53 3.7 W 22 - 12 - 1028.6 1028.6 0.0
27/09:00pm 9.8 3.7 0.2 51 3.8 W 22 - 12 - 1028.6 1028.6 0.0
27/08:30pm 10.1 3.9 -0.1 49 4.1 W 22 - 12 - 1028.3 1028.3 0.0
27/08:00pm 10.6 4.0 -0.2 47 4.3 WSW 24 - 13 - 1028.1 1028.1 0.0
27/07:30pm 11.0 4.4 -0.5 45 4.6 WSW 24 - 13 - 1027.9 1027.9 0.0
27/07:00pm 11.5 4.9 -0.6 43 4.8 WSW 24 - 13 - 1027.5 1027.5 0.0
27/06:30pm 11.8 6.1 -0.7 42 5.0 WSW 19 - 10 - 1027.0 1027.0 0.0
27/06:00pm 12.1 6.2 -0.7 41 5.1 W 20 - 11 - 1026.5 1026.5 0.0
27/05:30pm 12.5 6.2 -1.1 39 5.5 W 22 - 12 - 1026.1 1026.1 0.0
27/05:00pm 12.9 6.9 -1.8 36 5.8 WSW 20 - 11 - 1025.5 1025.5 0.0
27/04:30pm 13.4 5.8 -2.1 34 6.2 WSW 28 - 15 - 1025.5 1025.5 0.0
27/04:00pm 13.8 7.3 -2.2 33 6.3 WSW 22 - 12 - 1024.8 1024.8 0.0
27/03:30pm 15.1 8.2 -2.8 29 7.1 WSW 24 - 13 - 1024.7 1024.7 0.0
27/03:00pm 15.2 9.0 -3.2 28 7.2 SW 20 - 11 - 1024.5 1024.5 0.0
27/02:30pm 15.0 8.6 -2.0 31 6.9 WSW 22 - 12 - 1024.2 1024.2 0.0
27/02:00pm 15.0 7.8 -2.4 30 6.9 WSW 26 - 14 - 1024.1 1024.1 0.0
27/01:30pm 14.9 6.9 -2.1 31 6.9 W 30 - 16 - 1024.1 1024.1 0.0
27/01:00pm 13.8 6.1 -2.6 32 6.4 W 28 - 15 - 1024.1 1024.1 0.0
27/12:30pm 13.3 4.6 -3.0 32 6.3 WSW 33 - 18 - 1024.4 1024.4 0.0
27/12:00pm 12.5 3.8 -3.7 32 6.1 WSW 33 - 18 - 1024.6 1024.6 0.0
27/11:30am 12.2 2.3 -4.0 32 6.1 WSW 39 - 21 - 1024.8 1024.8 0.0
27/11:00am 12.0 4.8 -2.2 37 5.5 WSW 26 - 14 - 1025.3 1025.3 0.0
27/10:30am 11.4 4.6 -2.0 39 5.2 W 24 - 13 - 1025.4 1025.4 0.0
27/10:00am 11.0 3.7 -2.8 38 5.2 W 26 - 14 - 1025.9 1025.9 0.0
27/09:30am 10.6 3.4 -2.1 41 4.9 WSW 26 - 14 - 1025.7 1025.7 0.0
27/09:00am 10.2 4.1 -2.4 41 4.8 W 20 - 11 - 1025.0 1025.0 0.0
27/08:30am 9.8 3.2 -0.7 48 4.1 W 24 - 13 - 1024.9 1024.9 0.0
27/08:00am 9.0 3.7 -0.9 50 3.8 W 17 - 9 - 1024.8 1024.8 0.0
27/07:30am 8.6 2.7 -0.7 52 3.6 W 20 - 11 - 1024.1 1024.1 0.0
27/07:00am 7.3 2.9 0.3 61 2.7 WNW 13 - 7 - 1023.8 1023.8 0.0
27/06:30am 7.8 2.9 -0.4 56 3.2 W 15 - 8 - 1023.4 1023.4 0.0
27/06:00am 7.9 3.4 -0.6 55 3.3 WNW 13 - 7 - 1022.9 1022.9 0.0
27/05:30am 8.5 3.8 -1.6 49 3.8 WNW 13 - 7 - 1022.5 1022.5 0.0
27/05:00am 8.8 3.7 -1.6 48 4.0 W 15 - 8 - 1021.9 1021.9 0.0
27/04:30am 8.8 3.5 -0.8 51 3.7 WNW 17 - 9 - 1021.6 1021.6 0.0
27/04:00am 9.4 4.0 -1.0 48 4.0 WNW 17 - 9 - 1021.6 1021.6 0.0
27/03:30am 9.4 3.1 -1.0 48 4.1 W 22 - 12 - 1021.5 1021.5 0.0
27/03:00am 9.6 4.3 -0.9 48 4.1 W 17 - 9 - 1021.2 1021.2 0.0
27/02:30am 9.9 3.2 -0.9 47 4.2 W 24 - 13 - 1020.7 1020.7 0.0
27/02:00am 10.1 2.6 -1.3 45 4.4 W 28 - 15 - 1020.6 1020.6 0.0
27/01:30am 10.3 2.0 -1.4 44 4.6 W 32 - 17 - 1020.7 1020.7 0.0
27/01:00am 10.5 3.0 -1.2 44 4.6 W 28 - 15 - 1020.8 1020.8 0.0
27/12:30am 10.4 4.1 -0.7 46 4.4 WSW 22 - 12 - 1021.3 1021.3 0.0
27/12:00am 10.6 5.3 -0.8 45 4.5 WSW 17 - 9 - 1021.2 1021.2 0.0

Latest Capital City Observations: Canberra | Sydney | Melbourne | Brisbane | Adelaide | Perth | Hobart | Darwin

Other Formats:

Comma delimited format used in spreadsheet applications
http://www.bom.gov.au/fwo/IDN60901/IDN60901.94768.axf

JavaScript Object Notation format (JSON) in row-major order
http://www.bom.gov.au/fwo/IDN60901/IDN60901.94768.json